sensor_id;sensor_type;location;lat;lon;timestamp;P1;durP1;ratioP1;P2;durP2;ratioP2
6638;SDS011;3355;52.882;8.430;2024-02-15T00:00:43;16.10;;;13.37;;
6638;SDS011;3355;52.882;8.430;2024-02-15T07:27:54;19.60;;;14.33;;
6638;SDS011;3355;52.882;8.430;2024-02-15T07:30:22;18.87;;;13.83;;
6638;SDS011;3355;52.882;8.430;2024-02-15T07:32:48;24.93;;;16.50;;
6638;SDS011;3355;52.882;8.430;2024-02-15T07:35:15;21.90;;;14.37;;
6638;SDS011;3355;52.882;8.430;2024-02-15T07:37:50;16.63;;;14.67;;
6638;SDS011;3355;52.882;8.430;2024-02-15T07:40:17;19.00;;;14.70;;
6638;SDS011;3355;52.882;8.430;2024-02-15T07:42:48;18.30;;;14.23;;
6638;SDS011;3355;52.882;8.430;2024-02-15T07:45:17;20.10;;;14.77;;
6638;SDS011;3355;52.882;8.430;2024-02-15T07:47:43;18.80;;;14.53;;
6638;SDS011;3355;52.882;8.430;2024-02-15T07:50:14;20.93;;;16.00;;
6638;SDS011;3355;52.882;8.430;2024-02-15T07:52:45;18.00;;;15.27;;
6638;SDS011;3355;52.882;8.430;2024-02-15T07:55:11;16.10;;;14.13;;
6638;SDS011;3355;52.882;8.430;2024-02-15T07:57:38;19.33;;;15.17;;
6638;SDS011;3355;52.882;8.430;2024-02-15T08:00:07;17.10;;;14.00;;
6638;SDS011;3355;52.882;8.430;2024-02-15T08:02:35;20.47;;;14.00;;
6638;SDS011;3355;52.882;8.430;2024-02-15T08:05:05;18.30;;;14.43;;
6638;SDS011;3355;52.882;8.430;2024-02-15T08:07:35;21.37;;;15.30;;
6638;SDS011;3355;52.882;8.430;2024-02-15T08:10:03;19.60;;;14.90;;
6638;SDS011;3355;52.882;8.430;2024-02-15T08:12:32;22.37;;;16.40;;
6638;SDS011;3355;52.882;8.430;2024-02-15T08:14:58;24.77;;;16.27;;
6638;SDS011;3355;52.882;8.430;2024-02-15T08:17:26;21.33;;;15.80;;
6638;SDS011;3355;52.882;8.430;2024-02-15T08:19:54;23.60;;;15.90;;
6638;SDS011;3355;52.882;8.430;2024-02-15T08:22:20;19.53;;;14.90;;
6638;SDS011;3355;52.882;8.430;2024-02-15T08:24:49;22.30;;;16.50;;
6638;SDS011;3355;52.882;8.430;2024-02-15T08:27:16;21.37;;;16.53;;
6638;SDS011;3355;52.882;8.430;2024-02-15T08:29:42;20.93;;;16.67;;
6638;SDS011;3355;52.882;8.430;2024-02-15T08:32:09;19.87;;;15.90;;
6638;SDS011;3355;52.882;8.430;2024-02-15T08:34:38;20.80;;;16.80;;
6638;SDS011;3355;52.882;8.430;2024-02-15T08:37:04;23.20;;;17.20;;
6638;SDS011;3355;52.882;8.430;2024-02-15T08:39:32;25.07;;;17.30;;
6638;SDS011;3355;52.882;8.430;2024-02-15T08:41:59;32.43;;;17.30;;
6638;SDS011;3355;52.882;8.430;2024-02-15T08:44:25;23.93;;;17.43;;
6638;SDS011;3355;52.882;8.430;2024-02-15T08:46:52;21.57;;;17.67;;
6638;SDS011;3355;52.882;8.430;2024-02-15T08:49:18;27.80;;;19.47;;
6638;SDS011;3355;52.882;8.430;2024-02-15T08:51:47;28.70;;;19.87;;
6638;SDS011;3355;52.882;8.430;2024-02-15T08:54:13;23.90;;;19.27;;
6638;SDS011;3355;52.882;8.430;2024-02-15T08:56:40;24.87;;;19.67;;
6638;SDS011;3355;52.882;8.430;2024-02-15T08:59:06;32.07;;;21.77;;
6638;SDS011;3355;52.882;8.430;2024-02-15T09:01:36;28.53;;;20.90;;
6638;SDS011;3355;52.882;8.430;2024-02-15T09:04:04;27.07;;;20.00;;
6638;SDS011;3355;52.882;8.430;2024-02-15T09:06:31;26.20;;;20.30;;
6638;SDS011;3355;52.882;8.430;2024-02-15T09:08:59;28.00;;;19.13;;
6638;SDS011;3355;52.882;8.430;2024-02-15T09:11:28;32.10;;;22.03;;
6638;SDS011;3355;52.882;8.430;2024-02-15T09:13:55;28.00;;;20.30;;
6638;SDS011;3355;52.882;8.430;2024-02-15T09:16:21;26.43;;;19.03;;
6638;SDS011;3355;52.882;8.430;2024-02-15T09:18:48;28.60;;;20.03;;
6638;SDS011;3355;52.882;8.430;2024-02-15T09:21:14;26.53;;;20.00;;
6638;SDS011;3355;52.882;8.430;2024-02-15T09:23:41;25.07;;;19.80;;
6638;SDS011;3355;52.882;8.430;2024-02-15T09:26:09;29.37;;;19.83;;
6638;SDS011;3355;52.882;8.430;2024-02-15T09:28:36;28.97;;;19.77;;
6638;SDS011;3355;52.882;8.430;2024-02-15T09:31:02;25.87;;;19.70;;
6638;SDS011;3355;52.882;8.430;2024-02-15T09:33:29;30.83;;;21.90;;
6638;SDS011;3355;52.882;8.430;2024-02-15T09:35:56;29.57;;;20.97;;
6638;SDS011;3355;52.882;8.430;2024-02-15T09:38:22;31.37;;;19.80;;
6638;SDS011;3355;52.882;8.430;2024-02-15T09:40:50;27.13;;;20.20;;
6638;SDS011;3355;52.882;8.430;2024-02-15T09:43:18;25.60;;;19.37;;
6638;SDS011;3355;52.882;8.430;2024-02-15T09:45:45;26.47;;;19.40;;
6638;SDS011;3355;52.882;8.430;2024-02-15T09:48:13;26.63;;;19.90;;
6638;SDS011;3355;52.882;8.430;2024-02-15T09:50:43;27.63;;;20.83;;
6638;SDS011;3355;52.882;8.430;2024-02-15T09:53:12;27.83;;;18.43;;
6638;SDS011;3355;52.882;8.430;2024-02-15T09:55:40;23.27;;;17.07;;
6638;SDS011;3355;52.882;8.430;2024-02-15T09:58:07;24.17;;;18.27;;
6638;SDS011;3355;52.882;8.430;2024-02-15T10:00:36;20.43;;;16.17;;
6638;SDS011;3355;52.882;8.430;2024-02-15T10:03:02;23.37;;;16.50;;
6638;SDS011;3355;52.882;8.430;2024-02-15T10:05:32;28.90;;;18.30;;
6638;SDS011;3355;52.882;8.430;2024-02-15T10:07:58;27.80;;;17.47;;
6638;SDS011;3355;52.882;8.430;2024-02-15T10:10:26;21.63;;;17.50;;
6638;SDS011;3355;52.882;8.430;2024-02-15T10:12:54;19.00;;;16.27;;
6638;SDS011;3355;52.882;8.430;2024-02-15T10:15:28;22.80;;;16.40;;
6638;SDS011;3355;52.882;8.430;2024-02-15T10:17:57;23.33;;;16.50;;
6638;SDS011;3355;52.882;8.430;2024-02-15T10:20:24;20.90;;;16.50;;
6638;SDS011;3355;52.882;8.430;2024-02-15T10:22:52;19.80;;;15.73;;
6638;SDS011;3355;52.882;8.430;2024-02-15T10:25:20;22.00;;;16.60;;
6638;SDS011;3355;52.882;8.430;2024-02-15T10:27:47;19.53;;;15.27;;
6638;SDS011;3355;52.882;8.430;2024-02-15T10:30:15;16.93;;;14.13;;
6638;SDS011;3355;52.882;8.430;2024-02-15T10:32:42;19.43;;;14.97;;
6638;SDS011;3355;52.882;8.430;2024-02-15T10:35:11;19.50;;;14.20;;
6638;SDS011;3355;52.882;8.430;2024-02-15T10:37:45;18.33;;;14.57;;
6638;SDS011;3355;52.882;8.430;2024-02-15T10:40:14;17.40;;;14.40;;
6638;SDS011;3355;52.882;8.430;2024-02-15T10:42:43;17.63;;;14.80;;
6638;SDS011;3355;52.882;8.430;2024-02-15T10:45:12;14.37;;;12.87;;
6638;SDS011;3355;52.882;8.430;2024-02-15T10:47:39;22.40;;;15.00;;
6638;SDS011;3355;52.882;8.430;2024-02-15T10:50:07;14.57;;;12.47;;
6638;SDS011;3355;52.882;8.430;2024-02-15T10:52:37;16.60;;;13.73;;
6638;SDS011;3355;52.882;8.430;2024-02-15T10:55:10;16.30;;;13.20;;
6638;SDS011;3355;52.882;8.430;2024-02-15T10:57:39;20.90;;;14.20;;
6638;SDS011;3355;52.882;8.430;2024-02-15T11:00:11;16.23;;;13.27;;
6638;SDS011;3355;52.882;8.430;2024-02-15T11:02:46;15.73;;;14.23;;
6638;SDS011;3355;52.882;8.430;2024-02-15T11:05:18;17.07;;;14.23;;
6638;SDS011;3355;52.882;8.430;2024-02-15T11:07:50;14.30;;;12.80;;
6638;SDS011;3355;52.882;8.430;2024-02-15T11:10:18;14.20;;;12.80;;
6638;SDS011;3355;52.882;8.430;2024-02-15T11:12:45;15.50;;;12.03;;
6638;SDS011;3355;52.882;8.430;2024-02-15T11:15:12;14.30;;;12.87;;
6638;SDS011;3355;52.882;8.430;2024-02-15T11:18:10;13.23;;;11.93;;
6638;SDS011;3355;52.882;8.430;2024-02-15T11:20:46;14.70;;;13.30;;
6638;SDS011;3355;52.882;8.430;2024-02-15T11:23:28;17.00;;;13.57;;
6638;SDS011;3355;52.882;8.430;2024-02-15T11:25:55;14.30;;;11.00;;
6638;SDS011;3355;52.882;8.430;2024-02-15T11:28:39;13.90;;;12.50;;
6638;SDS011;3355;52.882;8.430;2024-02-15T11:31:07;13.13;;;11.93;;
6638;SDS011;3355;52.882;8.430;2024-02-15T11:33:35;12.80;;;11.50;;
6638;SDS011;3355;52.882;8.430;2024-02-15T11:36:04;16.00;;;11.60;;
6638;SDS011;3355;52.882;8.430;2024-02-15T11:38:32;13.60;;;11.10;;
6638;SDS011;3355;52.882;8.430;2024-02-15T11:41:03;13.07;;;11.77;;
6638;SDS011;3355;52.882;8.430;2024-02-15T11:43:47;12.93;;;11.73;;
6638;SDS011;3355;52.882;8.430;2024-02-15T11:46:24;12.90;;;11.47;;
6638;SDS011;3355;52.882;8.430;2024-02-15T11:48:55;11.97;;;10.77;;
6638;SDS011;3355;52.882;8.430;2024-02-15T11:51:30;10.67;;;9.50;;
6638;SDS011;3355;52.882;8.430;2024-02-15T11:54:03;14.83;;;11.97;;
6638;SDS011;3355;52.882;8.430;2024-02-15T11:56:49;12.10;;;10.60;;
6638;SDS011;3355;52.882;8.430;2024-02-15T11:59:30;12.77;;;11.13;;
6638;SDS011;3355;52.882;8.430;2024-02-15T12:01:57;12.47;;;11.10;;
6638;SDS011;3355;52.882;8.430;2024-02-15T12:04:42;13.07;;;11.87;;
6638;SDS011;3355;52.882;8.430;2024-02-15T12:07:27;9.30;;;8.50;;
6638;SDS011;3355;52.882;8.430;2024-02-15T12:10:16;11.17;;;10.07;;
6638;SDS011;3355;52.882;8.430;2024-02-15T12:13:00;9.67;;;8.77;;
6638;SDS011;3355;52.882;8.430;2024-02-15T12:15:55;12.57;;;9.00;;
6638;SDS011;3355;52.882;8.430;2024-02-15T12:18:40;10.17;;;9.20;;
6638;SDS011;3355;52.882;8.430;2024-02-15T12:21:08;8.43;;;7.73;;
6638;SDS011;3355;52.882;8.430;2024-02-15T12:23:37;10.47;;;9.57;;
6638;SDS011;3355;52.882;8.430;2024-02-15T12:26:07;10.07;;;9.03;;
6638;SDS011;3355;52.882;8.430;2024-02-15T12:28:34;9.10;;;8.30;;
6638;SDS011;3355;52.882;8.430;2024-02-15T12:31:01;9.40;;;8.30;;
6638;SDS011;3355;52.882;8.430;2024-02-15T12:33:31;9.37;;;8.57;;
6638;SDS011;3355;52.882;8.430;2024-02-15T12:36:03;9.03;;;8.10;;
6638;SDS011;3355;52.882;8.430;2024-02-15T12:38:31;8.90;;;8.20;;
6638;SDS011;3355;52.882;8.430;2024-02-15T12:40:59;10.57;;;9.37;;
6638;SDS011;3355;52.882;8.430;2024-02-15T12:43:28;9.23;;;8.43;;
6638;SDS011;3355;52.882;8.430;2024-02-15T12:45:55;9.60;;;8.70;;
6638;SDS011;3355;52.882;8.430;2024-02-15T12:48:22;8.83;;;8.13;;
6638;SDS011;3355;52.882;8.430;2024-02-15T12:50:48;9.77;;;8.63;;
6638;SDS011;3355;52.882;8.430;2024-02-15T12:53:20;9.67;;;8.77;;
6638;SDS011;3355;52.882;8.430;2024-02-15T12:55:52;8.93;;;8.13;;
6638;SDS011;3355;52.882;8.430;2024-02-15T12:58:19;8.17;;;7.50;;
6638;SDS011;3355;52.882;8.430;2024-02-15T13:00:50;7.63;;;6.93;;
6638;SDS011;3355;52.882;8.430;2024-02-15T13:03:26;8.70;;;7.90;;
6638;SDS011;3355;52.882;8.430;2024-02-15T13:05:53;8.33;;;7.53;;
6638;SDS011;3355;52.882;8.430;2024-02-15T13:08:20;12.03;;;8.20;;
6638;SDS011;3355;52.882;8.430;2024-02-15T13:10:47;8.10;;;7.30;;
6638;SDS011;3355;52.882;8.430;2024-02-15T13:13:16;7.73;;;7.13;;
6638;SDS011;3355;52.882;8.430;2024-02-15T13:15:43;7.70;;;7.10;;
6638;SDS011;3355;52.882;8.430;2024-02-15T13:18:11;8.00;;;7.27;;
6638;SDS011;3355;52.882;8.430;2024-02-15T13:20:38;7.20;;;6.60;;
6638;SDS011;3355;52.882;8.430;2024-02-15T13:23:06;9.20;;;6.80;;
6638;SDS011;3355;52.882;8.430;2024-02-15T13:25:40;7.80;;;7.10;;
6638;SDS011;3355;52.882;8.430;2024-02-15T13:28:08;7.87;;;7.17;;
6638;SDS011;3355;52.882;8.430;2024-02-15T13:30:35;8.30;;;7.20;;
6638;SDS011;3355;52.882;8.430;2024-02-15T13:33:02;7.37;;;6.60;;
6638;SDS011;3355;52.882;8.430;2024-02-15T13:35:30;6.83;;;6.23;;
6638;SDS011;3355;52.882;8.430;2024-02-15T13:37:58;7.60;;;6.87;;
6638;SDS011;3355;52.882;8.430;2024-02-15T13:40:27;7.50;;;6.70;;
6638;SDS011;3355;52.882;8.430;2024-02-15T13:42:56;6.80;;;6.10;;
6638;SDS011;3355;52.882;8.430;2024-02-15T13:45:24;6.40;;;5.90;;
6638;SDS011;3355;52.882;8.430;2024-02-15T13:47:57;7.00;;;6.33;;
6638;SDS011;3355;52.882;8.430;2024-02-15T13:50:25;7.43;;;6.73;;
6638;SDS011;3355;52.882;8.430;2024-02-15T13:52:54;6.47;;;5.87;;
6638;SDS011;3355;52.882;8.430;2024-02-15T13:55:20;7.70;;;6.73;;
6638;SDS011;3355;52.882;8.430;2024-02-15T13:57:47;7.93;;;6.20;;
6638;SDS011;3355;52.882;8.430;2024-02-15T14:00:14;8.40;;;5.60;;
6638;SDS011;3355;52.882;8.430;2024-02-15T14:02:47;7.47;;;6.13;;
6638;SDS011;3355;52.882;8.430;2024-02-15T14:05:14;6.60;;;6.00;;
6638;SDS011;3355;52.882;8.430;2024-02-15T14:07:45;6.43;;;5.83;;
6638;SDS011;3355;52.882;8.430;2024-02-15T14:10:14;5.93;;;5.30;;
6638;SDS011;3355;52.882;8.430;2024-02-15T14:12:40;6.23;;;5.63;;
6638;SDS011;3355;52.882;8.430;2024-02-15T14:15:07;6.00;;;4.97;;
6638;SDS011;3355;52.882;8.430;2024-02-15T14:17:34;5.13;;;4.67;;
6638;SDS011;3355;52.882;8.430;2024-02-15T14:20:01;5.23;;;4.73;;
6638;SDS011;3355;52.882;8.430;2024-02-15T14:22:30;6.30;;;5.67;;
6638;SDS011;3355;52.882;8.430;2024-02-15T14:24:56;9.67;;;6.50;;
6638;SDS011;3355;52.882;8.430;2024-02-15T14:27:24;6.40;;;5.80;;
6638;SDS011;3355;52.882;8.430;2024-02-15T14:29:53;6.37;;;5.77;;
6638;SDS011;3355;52.882;8.430;2024-02-15T14:32:37;11.60;;;5.97;;
6638;SDS011;3355;52.882;8.430;2024-02-15T14:35:21;5.83;;;5.30;;
6638;SDS011;3355;52.882;8.430;2024-02-15T14:37:48;6.20;;;5.60;;
6638;SDS011;3355;52.882;8.430;2024-02-15T14:40:15;6.10;;;4.90;;
6638;SDS011;3355;52.882;8.430;2024-02-15T14:42:43;5.57;;;5.07;;
6638;SDS011;3355;52.882;8.430;2024-02-15T14:45:10;5.97;;;5.40;;
6638;SDS011;3355;52.882;8.430;2024-02-15T14:47:38;6.70;;;5.20;;
6638;SDS011;3355;52.882;8.430;2024-02-15T14:50:05;7.03;;;6.13;;
6638;SDS011;3355;52.882;8.430;2024-02-15T14:52:34;6.87;;;6.20;;
6638;SDS011;3355;52.882;8.430;2024-02-15T14:55:01;7.40;;;5.27;;
6638;SDS011;3355;52.882;8.430;2024-02-15T14:57:32;4.90;;;4.40;;
6638;SDS011;3355;52.882;8.430;2024-02-15T15:00:01;11.23;;;5.83;;
6638;SDS011;3355;52.882;8.430;2024-02-15T15:02:36;4.60;;;4.20;;
6638;SDS011;3355;52.882;8.430;2024-02-15T15:05:03;7.53;;;5.73;;
6638;SDS011;3355;52.882;8.430;2024-02-15T15:07:48;5.27;;;4.77;;
6638;SDS011;3355;52.882;8.430;2024-02-15T15:10:48;6.87;;;5.87;;
6638;SDS011;3355;52.882;8.430;2024-02-15T15:13:32;5.93;;;5.43;;
6638;SDS011;3355;52.882;8.430;2024-02-15T15:16:04;5.30;;;4.80;;
6638;SDS011;3355;52.882;8.430;2024-02-15T15:18:47;6.83;;;5.17;;
6638;SDS011;3355;52.882;8.430;2024-02-15T15:21:15;7.43;;;4.70;;
6638;SDS011;3355;52.882;8.430;2024-02-15T15:23:42;4.87;;;4.37;;
6638;SDS011;3355;52.882;8.430;2024-02-15T15:26:09;6.17;;;5.00;;
6638;SDS011;3355;52.882;8.430;2024-02-15T15:28:36;5.90;;;5.30;;
6638;SDS011;3355;52.882;8.430;2024-02-15T15:31:09;6.00;;;4.37;;
6638;SDS011;3355;52.882;8.430;2024-02-15T15:33:35;5.53;;;4.20;;
6638;SDS011;3355;52.882;8.430;2024-02-15T15:36:06;7.13;;;4.70;;
6638;SDS011;3355;52.882;8.430;2024-02-15T15:38:33;5.00;;;4.60;;
6638;SDS011;3355;52.882;8.430;2024-02-15T15:41:00;6.10;;;4.90;;
6638;SDS011;3355;52.882;8.430;2024-02-15T15:43:28;5.30;;;4.60;;
6638;SDS011;3355;52.882;8.430;2024-02-15T15:45:55;5.70;;;5.17;;
6638;SDS011;3355;52.882;8.430;2024-02-15T15:48:24;5.20;;;4.70;;
6638;SDS011;3355;52.882;8.430;2024-02-15T15:50:54;8.03;;;5.00;;
6638;SDS011;3355;52.882;8.430;2024-02-15T15:53:24;7.23;;;5.20;;
6638;SDS011;3355;52.882;8.430;2024-02-15T15:55:52;8.00;;;5.10;;
6638;SDS011;3355;52.882;8.430;2024-02-15T15:58:26;4.87;;;4.40;;
6638;SDS011;3355;52.882;8.430;2024-02-15T16:00:55;6.70;;;4.93;;
6638;SDS011;3355;52.882;8.430;2024-02-15T16:03:22;6.17;;;4.67;;
6638;SDS011;3355;52.882;8.430;2024-02-15T16:05:50;4.53;;;4.07;;
6638;SDS011;3355;52.882;8.430;2024-02-15T16:08:21;4.57;;;4.17;;
6638;SDS011;3355;52.882;8.430;2024-02-15T16:10:51;9.13;;;4.47;;
6638;SDS011;3355;52.882;8.430;2024-02-15T16:13:19;6.67;;;4.03;;
6638;SDS011;3355;52.882;8.430;2024-02-15T16:15:50;5.53;;;4.43;;
6638;SDS011;3355;52.882;8.430;2024-02-15T16:18:18;6.37;;;4.50;;
6638;SDS011;3355;52.882;8.430;2024-02-15T16:20:46;5.77;;;4.20;;
6638;SDS011;3355;52.882;8.430;2024-02-15T16:23:14;5.83;;;4.10;;
6638;SDS011;3355;52.882;8.430;2024-02-15T16:25:41;6.20;;;4.00;;
6638;SDS011;3355;52.882;8.430;2024-02-15T16:28:08;7.30;;;4.10;;
6638;SDS011;3355;52.882;8.430;2024-02-15T16:30:34;4.97;;;4.10;;
6638;SDS011;3355;52.882;8.430;2024-02-15T16:33:01;5.33;;;4.00;;
6638;SDS011;3355;52.882;8.430;2024-02-15T16:35:29;6.10;;;4.40;;
6638;SDS011;3355;52.882;8.430;2024-02-15T16:37:56;7.30;;;4.20;;
6638;SDS011;3355;52.882;8.430;2024-02-15T16:40:24;7.07;;;4.50;;
6638;SDS011;3355;52.882;8.430;2024-02-15T16:42:53;6.77;;;4.43;;
6638;SDS011;3355;52.882;8.430;2024-02-15T16:45:22;5.60;;;4.70;;
6638;SDS011;3355;52.882;8.430;2024-02-15T16:47:50;5.57;;;3.80;;
6638;SDS011;3355;52.882;8.430;2024-02-15T16:50:21;4.70;;;3.90;;
6638;SDS011;3355;52.882;8.430;2024-02-15T16:52:48;5.30;;;3.50;;
6638;SDS011;3355;52.882;8.430;2024-02-15T16:55:16;8.17;;;4.43;;
6638;SDS011;3355;52.882;8.430;2024-02-15T16:57:48;4.67;;;3.90;;
6638;SDS011;3355;52.882;8.430;2024-02-15T17:00:15;6.87;;;3.90;;
6638;SDS011;3355;52.882;8.430;2024-02-15T17:02:43;5.83;;;3.73;;
6638;SDS011;3355;52.882;8.430;2024-02-15T17:05:11;7.07;;;4.67;;
6638;SDS011;3355;52.882;8.430;2024-02-15T17:07:37;4.30;;;3.70;;
6638;SDS011;3355;52.882;8.430;2024-02-15T17:10:08;5.53;;;4.33;;
6638;SDS011;3355;52.882;8.430;2024-02-15T17:12:38;4.90;;;3.20;;
6638;SDS011;3355;52.882;8.430;2024-02-15T17:15:08;4.83;;;3.30;;
6638;SDS011;3355;52.882;8.430;2024-02-15T17:17:41;5.80;;;3.57;;
6638;SDS011;3355;52.882;8.430;2024-02-15T17:20:08;8.03;;;4.07;;
6638;SDS011;3355;52.882;8.430;2024-02-15T17:22:43;4.63;;;3.40;;
6638;SDS011;3355;52.882;8.430;2024-02-15T17:25:10;5.53;;;4.00;;
6638;SDS011;3355;52.882;8.430;2024-02-15T17:27:37;4.70;;;3.73;;
6638;SDS011;3355;52.882;8.430;2024-02-15T17:30:05;6.00;;;3.83;;
6638;SDS011;3355;52.882;8.430;2024-02-15T17:32:35;6.90;;;4.00;;
6638;SDS011;3355;52.882;8.430;2024-02-15T17:35:02;7.27;;;3.90;;
6638;SDS011;3355;52.882;8.430;2024-02-15T17:37:32;5.00;;;4.07;;
6638;SDS011;3355;52.882;8.430;2024-02-15T17:39:58;5.20;;;3.90;;
6638;SDS011;3355;52.882;8.430;2024-02-15T17:42:25;5.53;;;3.97;;
6638;SDS011;3355;52.882;8.430;2024-02-15T17:44:52;6.23;;;3.90;;
6638;SDS011;3355;52.882;8.430;2024-02-15T17:47:18;5.60;;;4.20;;
6638;SDS011;3355;52.882;8.430;2024-02-15T17:49:47;4.00;;;3.20;;
6638;SDS011;3355;52.882;8.430;2024-02-15T17:52:14;5.83;;;3.33;;
6638;SDS011;3355;52.882;8.430;2024-02-15T17:54:41;5.27;;;4.00;;
6638;SDS011;3355;52.882;8.430;2024-02-15T17:57:08;3.87;;;3.03;;
6638;SDS011;3355;52.882;8.430;2024-02-15T17:59:35;5.17;;;3.50;;
6638;SDS011;3355;52.882;8.430;2024-02-15T18:02:02;5.10;;;3.67;;
6638;SDS011;3355;52.882;8.430;2024-02-15T18:04:30;6.30;;;2.90;;
6638;SDS011;3355;52.882;8.430;2024-02-15T18:06:58;6.80;;;3.90;;
6638;SDS011;3355;52.882;8.430;2024-02-15T18:09:25;5.63;;;4.00;;
6638;SDS011;3355;52.882;8.430;2024-02-15T18:11:53;3.40;;;3.03;;
6638;SDS011;3355;52.882;8.430;2024-02-15T18:14:20;4.20;;;3.00;;
6638;SDS011;3355;52.882;8.430;2024-02-15T18:16:47;3.40;;;3.10;;
6638;SDS011;3355;52.882;8.430;2024-02-15T18:19:15;5.47;;;3.80;;
6638;SDS011;3355;52.882;8.430;2024-02-15T18:21:44;6.17;;;3.27;;
6638;SDS011;3355;52.882;8.430;2024-02-15T18:24:13;3.70;;;3.10;;
6638;SDS011;3355;52.882;8.430;2024-02-15T18:26:39;4.63;;;3.70;;
6638;SDS011;3355;52.882;8.430;2024-02-15T18:29:06;4.13;;;3.30;;
6638;SDS011;3355;52.882;8.430;2024-02-15T18:31:34;5.67;;;3.10;;
6638;SDS011;3355;52.882;8.430;2024-02-15T18:34:01;4.23;;;3.60;;
6638;SDS011;3355;52.882;8.430;2024-02-15T18:36:31;4.10;;;3.50;;
6638;SDS011;3355;52.882;8.430;2024-02-15T18:38:58;3.50;;;3.00;;
6638;SDS011;3355;52.882;8.430;2024-02-15T18:41:26;4.13;;;2.80;;
6638;SDS011;3355;52.882;8.430;2024-02-15T18:43:53;10.13;;;3.50;;
6638;SDS011;3355;52.882;8.430;2024-02-15T18:46:20;5.53;;;3.30;;
6638;SDS011;3355;52.882;8.430;2024-02-15T18:48:46;3.33;;;2.93;;
6638;SDS011;3355;52.882;8.430;2024-02-15T18:51:13;3.50;;;3.20;;
6638;SDS011;3355;52.882;8.430;2024-02-15T18:53:41;6.03;;;3.83;;
6638;SDS011;3355;52.882;8.430;2024-02-15T18:56:12;6.07;;;3.00;;
6638;SDS011;3355;52.882;8.430;2024-02-15T18:58:41;6.07;;;3.13;;
6638;SDS011;3355;52.882;8.430;2024-02-15T19:01:08;4.30;;;3.00;;
6638;SDS011;3355;52.882;8.430;2024-02-15T19:03:35;8.40;;;2.80;;
6638;SDS011;3355;52.882;8.430;2024-02-15T19:06:02;5.60;;;3.20;;
6638;SDS011;3355;52.882;8.430;2024-02-15T19:08:29;6.20;;;3.67;;
6638;SDS011;3355;52.882;8.430;2024-02-15T19:10:55;3.50;;;3.20;;
6638;SDS011;3355;52.882;8.430;2024-02-15T19:13:23;5.17;;;3.57;;
6638;SDS011;3355;52.882;8.430;2024-02-15T19:15:53;3.43;;;2.70;;
6638;SDS011;3355;52.882;8.430;2024-02-15T19:18:21;3.83;;;2.70;;
6638;SDS011;3355;52.882;8.430;2024-02-15T19:20:48;6.90;;;2.90;;
6638;SDS011;3355;52.882;8.430;2024-02-15T19:23:15;4.33;;;3.03;;
6638;SDS011;3355;52.882;8.430;2024-02-15T19:25:42;4.90;;;2.90;;
6638;SDS011;3355;52.882;8.430;2024-02-15T19:28:09;4.10;;;3.70;;
6638;SDS011;3355;52.882;8.430;2024-02-15T19:30:36;5.63;;;3.17;;
6638;SDS011;3355;52.882;8.430;2024-02-15T19:33:04;3.33;;;2.93;;
6638;SDS011;3355;52.882;8.430;2024-02-15T19:35:31;3.50;;;3.10;;
6638;SDS011;3355;52.882;8.430;2024-02-15T19:37:57;4.50;;;2.90;;
6638;SDS011;3355;52.882;8.430;2024-02-15T19:40:24;4.33;;;3.40;;
6638;SDS011;3355;52.882;8.430;2024-02-15T19:42:50;4.43;;;2.80;;
6638;SDS011;3355;52.882;8.430;2024-02-15T19:45:17;6.70;;;4.27;;
6638;SDS011;3355;52.882;8.430;2024-02-15T19:47:45;6.37;;;3.00;;
6638;SDS011;3355;52.882;8.430;2024-02-15T19:50:13;6.97;;;3.00;;
6638;SDS011;3355;52.882;8.430;2024-02-15T19:52:42;2.90;;;2.53;;
6638;SDS011;3355;52.882;8.430;2024-02-15T19:55:09;4.57;;;3.20;;
6638;SDS011;3355;52.882;8.430;2024-02-15T19:57:35;4.47;;;3.50;;
6638;SDS011;3355;52.882;8.430;2024-02-15T20:00:03;4.73;;;2.70;;
6638;SDS011;3355;52.882;8.430;2024-02-15T20:02:32;6.57;;;2.90;;
6638;SDS011;3355;52.882;8.430;2024-02-15T20:04:58;5.53;;;3.43;;
6638;SDS011;3355;52.882;8.430;2024-02-15T20:07:26;4.27;;;3.40;;
6638;SDS011;3355;52.882;8.430;2024-02-15T20:09:53;8.33;;;3.60;;
6638;SDS011;3355;52.882;8.430;2024-02-15T20:12:20;4.27;;;3.07;;
6638;SDS011;3355;52.882;8.430;2024-02-15T20:14:47;4.77;;;3.10;;
6638;SDS011;3355;52.882;8.430;2024-02-15T20:17:14;4.40;;;2.77;;
6638;SDS011;3355;52.882;8.430;2024-02-15T20:19:41;4.97;;;2.40;;
6638;SDS011;3355;52.882;8.430;2024-02-15T20:22:07;4.43;;;2.63;;
6638;SDS011;3355;52.882;8.430;2024-02-15T20:24:35;4.10;;;2.80;;
6638;SDS011;3355;52.882;8.430;2024-02-15T20:27:03;5.47;;;3.33;;
6638;SDS011;3355;52.882;8.430;2024-02-15T20:29:30;8.87;;;3.70;;
6638;SDS011;3355;52.882;8.430;2024-02-15T20:31:57;3.30;;;3.00;;
6638;SDS011;3355;52.882;8.430;2024-02-15T20:34:24;4.23;;;2.80;;
6638;SDS011;3355;52.882;8.430;2024-02-15T20:36:51;5.47;;;3.37;;
6638;SDS011;3355;52.882;8.430;2024-02-15T20:39:18;6.57;;;3.10;;
6638;SDS011;3355;52.882;8.430;2024-02-15T20:41:46;3.43;;;3.00;;
6638;SDS011;3355;52.882;8.430;2024-02-15T20:44:14;7.07;;;3.50;;
6638;SDS011;3355;52.882;8.430;2024-02-15T20:46:40;6.90;;;3.50;;
6638;SDS011;3355;52.882;8.430;2024-02-15T20:49:07;5.57;;;4.30;;
6638;SDS011;3355;52.882;8.430;2024-02-15T20:51:34;4.10;;;3.40;;
6638;SDS011;3355;52.882;8.430;2024-02-15T20:54:02;5.33;;;3.43;;
6638;SDS011;3355;52.882;8.430;2024-02-15T20:56:29;4.77;;;3.53;;
6638;SDS011;3355;52.882;8.430;2024-02-15T20:59:01;6.03;;;3.03;;
6638;SDS011;3355;52.882;8.430;2024-02-15T21:01:29;9.97;;;3.17;;
6638;SDS011;3355;52.882;8.430;2024-02-15T21:03:55;4.13;;;3.00;;
6638;SDS011;3355;52.882;8.430;2024-02-15T21:06:22;4.67;;;3.40;;
6638;SDS011;3355;52.882;8.430;2024-02-15T21:08:50;6.10;;;3.40;;
6638;SDS011;3355;52.882;8.430;2024-02-15T21:11:18;5.27;;;3.43;;
6638;SDS011;3355;52.882;8.430;2024-02-15T21:13:45;3.47;;;3.00;;
6638;SDS011;3355;52.882;8.430;2024-02-15T21:16:15;5.23;;;4.00;;
6638;SDS011;3355;52.882;8.430;2024-02-15T21:18:42;5.20;;;3.13;;
6638;SDS011;3355;52.882;8.430;2024-02-15T21:21:09;5.80;;;3.57;;
6638;SDS011;3355;52.882;8.430;2024-02-15T21:23:36;7.43;;;4.23;;
6638;SDS011;3355;52.882;8.430;2024-02-15T21:26:02;4.77;;;3.80;;
6638;SDS011;3355;52.882;8.430;2024-02-15T21:28:30;5.83;;;3.60;;
6638;SDS011;3355;52.882;8.430;2024-02-15T21:30:57;5.47;;;3.57;;
6638;SDS011;3355;52.882;8.430;2024-02-15T21:33:25;4.87;;;3.93;;
6638;SDS011;3355;52.882;8.430;2024-02-15T21:35:51;4.60;;;3.70;;
6638;SDS011;3355;52.882;8.430;2024-02-15T21:38:24;4.07;;;3.63;;
6638;SDS011;3355;52.882;8.430;2024-02-15T21:40:50;4.50;;;3.50;;
6638;SDS011;3355;52.882;8.430;2024-02-15T21:43:18;6.97;;;4.20;;
6638;SDS011;3355;52.882;8.430;2024-02-15T21:45:44;5.20;;;4.00;;
6638;SDS011;3355;52.882;8.430;2024-02-15T21:48:11;5.00;;;3.97;;
6638;SDS011;3355;52.882;8.430;2024-02-15T21:50:39;5.37;;;4.03;;
6638;SDS011;3355;52.882;8.430;2024-02-15T21:53:05;7.80;;;4.40;;
6638;SDS011;3355;52.882;8.430;2024-02-15T21:55:32;4.70;;;3.70;;
6638;SDS011;3355;52.882;8.430;2024-02-15T21:57:59;7.60;;;4.63;;
6638;SDS011;3355;52.882;8.430;2024-02-15T22:00:26;5.60;;;4.60;;
6638;SDS011;3355;52.882;8.430;2024-02-15T22:02:52;7.23;;;4.67;;
6638;SDS011;3355;52.882;8.430;2024-02-15T22:05:20;6.47;;;4.53;;
6638;SDS011;3355;52.882;8.430;2024-02-15T22:07:47;6.70;;;4.83;;
6638;SDS011;3355;52.882;8.430;2024-02-15T22:10:14;10.10;;;5.23;;
6638;SDS011;3355;52.882;8.430;2024-02-15T22:12:41;5.30;;;4.80;;
6638;SDS011;3355;52.882;8.430;2024-02-15T22:15:08;6.23;;;4.97;;
6638;SDS011;3355;52.882;8.430;2024-02-15T22:17:35;6.03;;;5.00;;
6638;SDS011;3355;52.882;8.430;2024-02-15T22:20:02;6.10;;;5.23;;
6638;SDS011;3355;52.882;8.430;2024-02-15T22:22:30;8.73;;;4.40;;
6638;SDS011;3355;52.882;8.430;2024-02-15T22:24:58;5.40;;;4.10;;
6638;SDS011;3355;52.882;8.430;2024-02-15T22:27:25;6.80;;;4.70;;
6638;SDS011;3355;52.882;8.430;2024-02-15T22:29:52;6.40;;;4.80;;
6638;SDS011;3355;52.882;8.430;2024-02-15T22:32:19;6.53;;;5.13;;
6638;SDS011;3355;52.882;8.430;2024-02-15T22:34:47;5.60;;;4.27;;
6638;SDS011;3355;52.882;8.430;2024-02-15T22:37:13;4.97;;;4.27;;
6638;SDS011;3355;52.882;8.430;2024-02-15T22:39:40;6.23;;;4.57;;
6638;SDS011;3355;52.882;8.430;2024-02-15T22:42:08;5.90;;;4.50;;